createdAt,value
2023-04-15T00:01:45.789Z,12.50
2023-04-15T00:04:48.520Z,7.10
2023-04-15T00:07:51.423Z,6.03
2023-04-15T00:10:53.874Z,11.10
2023-04-15T00:13:56.534Z,7.70
2023-04-15T00:16:59.071Z,14.75
2023-04-15T00:20:01.631Z,15.10
2023-04-15T00:23:04.449Z,10.93
2023-04-15T00:26:07.554Z,5.90
2023-04-15T00:29:10.463Z,6.57
2023-04-15T00:32:13.437Z,6.63
2023-04-15T00:35:16.782Z,6.57
2023-04-15T00:38:19.642Z,5.60
2023-04-15T00:41:23.097Z,5.63
2023-04-15T00:44:25.765Z,5.45
2023-04-15T00:47:29.911Z,5.30
2023-04-15T00:50:33.436Z,5.17
2023-04-15T00:53:35.977Z,5.85
2023-04-15T00:56:39.416Z,5.20
2023-04-15T00:59:41.858Z,6.07
2023-04-15T01:02:44.647Z,5.88
2023-04-15T01:05:47.382Z,9.83
2023-04-15T01:08:50.057Z,7.90
2023-04-15T01:11:52.842Z,5.82
2023-04-15T01:14:56.262Z,6.07
2023-04-15T01:18:03.302Z,6.20
2023-04-15T01:21:07.101Z,5.53
2023-04-15T01:24:10.720Z,6.05
2023-04-15T01:27:13.167Z,6.45
2023-04-15T01:30:15.609Z,6.05
2023-04-15T01:33:18.166Z,6.25
2023-04-15T01:36:22.163Z,5.63
2023-04-15T01:39:28.720Z,5.90
2023-04-15T01:42:32.774Z,6.90
2023-04-15T01:45:35.196Z,6.20
2023-04-15T01:48:39.942Z,6.47
2023-04-15T01:51:42.602Z,5.70
2023-04-15T01:54:45.135Z,5.38
2023-04-15T01:57:47.906Z,6.47
2023-04-15T02:00:50.640Z,6.32
2023-04-15T02:03:53.868Z,5.68
2023-04-15T02:06:57.679Z,5.90
2023-04-15T02:10:00.458Z,5.20
2023-04-15T02:13:03.039Z,5.03
2023-04-15T02:16:15.880Z,7.90
2023-04-15T02:19:19.407Z,14.40
2023-04-15T02:22:22.526Z,13.23
2023-04-15T02:25:25.192Z,9.73
2023-04-15T02:28:27.716Z,7.60
2023-04-15T02:31:30.470Z,8.48
2023-04-15T02:34:34.732Z,8.73
2023-04-15T02:37:43.523Z,14.33
2023-04-15T02:40:46.727Z,10.18
2023-04-15T02:43:49.433Z,15.60
2023-04-15T02:46:53.669Z,15.00
2023-04-15T02:49:58.635Z,15.88
2023-04-15T02:53:01.806Z,8.97
2023-04-15T02:56:06.170Z,7.95
2023-04-15T02:59:08.690Z,6.55
2023-04-15T03:02:11.656Z,6.97
2023-04-15T03:05:14.630Z,7.13
2023-04-15T03:08:23.556Z,6.20
2023-04-15T03:11:27.313Z,6.68
2023-04-15T03:14:29.764Z,6.57
2023-04-15T03:17:32.311Z,6.68
2023-04-15T03:20:36.547Z,6.20
2023-04-15T03:23:39.071Z,6.63
2023-04-15T03:26:41.602Z,8.65
2023-04-15T03:29:47.935Z,9.05
2023-04-15T03:32:53.496Z,6.78
2023-04-15T03:35:56.074Z,6.45
2023-04-15T03:38:58.829Z,6.10
2023-04-15T03:42:01.982Z,5.80
2023-04-15T03:45:04.838Z,6.72
2023-04-15T03:48:17.259Z,6.50
2023-04-15T03:51:20.685Z,6.25
2023-04-15T03:54:23.221Z,6.00
2023-04-15T03:57:25.664Z,6.47
2023-04-15T04:00:28.154Z,6.40
2023-04-15T04:03:31.088Z,6.35
2023-04-15T04:06:33.811Z,7.10
2023-04-15T04:09:36.329Z,6.53
2023-04-15T04:12:39.088Z,6.65
2023-04-15T04:15:41.525Z,7.47
2023-04-15T04:18:44.084Z,9.60
2023-04-15T04:21:47.571Z,7.80
2023-04-15T04:24:50.232Z,13.33
2023-04-15T04:27:52.925Z,15.25
2023-04-15T04:30:56.380Z,14.85
2023-04-15T04:33:58.760Z,11.55
2023-04-15T04:37:01.375Z,10.35
2023-04-15T04:40:04.648Z,11.33
2023-04-15T04:43:07.181Z,12.18
2023-04-15T04:46:10.480Z,10.77
2023-04-15T04:49:13.055Z,8.73
2023-04-15T04:52:16.135Z,7.35
2023-04-15T04:55:18.538Z,6.07
2023-04-15T04:58:21.433Z,6.25
2023-04-15T05:01:24.019Z,5.38
2023-04-15T05:04:26.578Z,5.53
2023-04-15T05:07:29.049Z,5.53
2023-04-15T05:10:31.726Z,5.10
2023-04-15T05:13:34.274Z,6.13
2023-04-15T05:16:36.751Z,5.70
2023-04-15T05:19:39.400Z,5.35
2023-04-15T05:22:42.106Z,5.38
2023-04-15T05:25:44.569Z,5.00
2023-04-15T05:28:47.942Z,5.13
2023-04-15T05:31:50.827Z,5.20
2023-04-15T05:34:53.691Z,6.18
2023-04-15T05:37:56.399Z,6.03
2023-04-15T05:40:59.011Z,7.13
2023-04-15T05:44:01.819Z,6.60
2023-04-15T05:47:04.297Z,5.40
2023-04-15T05:50:07.383Z,5.10
2023-04-15T05:53:10.030Z,5.40
2023-04-15T05:56:12.648Z,5.13
2023-04-15T05:59:15.321Z,5.47
2023-04-15T06:02:17.971Z,4.85
2023-04-15T06:05:20.591Z,5.20
2023-04-15T06:08:23.152Z,4.65
2023-04-15T06:11:26.816Z,4.77
2023-04-15T06:14:29.310Z,5.35
2023-04-15T06:17:31.808Z,4.50
2023-04-15T06:20:34.247Z,4.00
2023-04-15T06:23:36.805Z,4.68
2023-04-15T06:26:39.221Z,4.93
2023-04-15T06:29:41.755Z,4.93
2023-04-15T06:32:44.297Z,4.43
2023-04-15T06:35:47.450Z,8.27
2023-04-15T06:38:49.872Z,5.68
2023-04-15T06:41:52.593Z,9.10
2023-04-15T06:44:57.103Z,6.85
2023-04-15T06:47:59.576Z,6.20
2023-04-15T06:51:04.173Z,10.60
2023-04-15T06:54:07.501Z,5.22
2023-04-15T06:57:09.941Z,5.10
2023-04-15T07:00:12.886Z,5.00
2023-04-15T07:03:15.549Z,5.25
2023-04-15T07:06:18.006Z,5.78
2023-04-15T07:09:20.696Z,5.03
2023-04-15T07:12:23.288Z,5.10
2023-04-15T07:15:25.856Z,5.07
2023-04-15T07:18:28.365Z,6.45
2023-04-15T07:21:31.179Z,4.90
2023-04-15T07:24:33.837Z,6.03
2023-04-15T07:27:36.721Z,5.77
2023-04-15T07:30:39.570Z,6.38
2023-04-15T07:33:42.125Z,6.95
2023-04-15T07:36:44.631Z,7.75
2023-04-15T07:39:47.289Z,5.80
2023-04-15T07:42:50.021Z,4.83
2023-04-15T07:45:53.152Z,5.65
2023-04-15T07:48:55.625Z,5.78
2023-04-15T07:52:00.142Z,4.57
2023-04-15T07:55:02.741Z,3.67
2023-04-15T07:58:05.279Z,3.83
2023-04-15T08:01:07.863Z,4.43
2023-04-15T08:04:10.883Z,6.68
2023-04-15T08:07:13.527Z,5.15
2023-04-15T08:10:16.238Z,4.97
2023-04-15T08:13:18.887Z,4.03
2023-04-15T08:16:24.662Z,4.28
2023-04-15T08:19:27.292Z,5.13
2023-04-15T08:22:30.515Z,4.80
2023-04-15T08:25:33.423Z,3.83
2023-04-15T08:28:38.618Z,3.60
2023-04-15T08:31:41.161Z,4.70
2023-04-15T08:34:43.634Z,5.25
2023-04-15T08:37:46.152Z,4.93
2023-04-15T08:40:48.626Z,5.53
2023-04-15T08:43:57.875Z,4.47
2023-04-15T08:47:04.058Z,4.43
2023-04-15T08:50:09.332Z,4.40
2023-04-15T08:53:12.214Z,5.32
2023-04-15T08:56:16.762Z,4.93
2023-04-15T08:59:21.919Z,4.07
2023-04-15T09:02:26.409Z,4.35
2023-04-15T09:05:32.638Z,4.85
2023-04-15T09:08:35.921Z,4.75
2023-04-15T09:11:38.739Z,4.05
2023-04-15T09:14:41.503Z,3.90
2023-04-15T09:17:44.445Z,2.92
2023-04-15T09:20:47.431Z,2.80
2023-04-15T09:23:59.254Z,2.15
2023-04-15T09:27:02.487Z,1.80
2023-04-15T09:30:09.174Z,2.30
2023-04-15T09:33:14.785Z,2.38
2023-04-15T09:36:17.367Z,1.67
2023-04-15T09:39:20.618Z,1.23
2023-04-15T09:42:28.056Z,1.60
2023-04-15T09:45:31.338Z,6.73
2023-04-15T09:48:33.825Z,2.40
2023-04-15T09:51:36.660Z,1.35
2023-04-15T09:54:39.083Z,3.03
2023-04-15T09:57:41.900Z,1.50
2023-04-15T10:00:46.826Z,2.00
2023-04-15T10:03:49.941Z,2.75
2023-04-15T10:06:52.386Z,3.08
2023-04-15T10:09:55.391Z,2.47
2023-04-15T10:12:57.856Z,1.88
2023-04-15T10:16:16.969Z,2.73
2023-04-15T10:19:21.884Z,2.20
2023-04-15T10:22:26.044Z,2.17
2023-04-15T10:25:28.711Z,3.22
2023-04-15T10:28:31.123Z,2.30
2023-04-15T10:31:33.972Z,2.00
2023-04-15T10:34:37.097Z,2.15
2023-04-15T10:37:39.528Z,3.45
2023-04-15T10:40:42.397Z,2.70
2023-04-15T10:43:55.863Z,1.33
2023-04-15T10:46:58.813Z,1.80
2023-04-15T10:50:02.524Z,3.40
2023-04-15T10:53:05.806Z,1.40
2023-04-15T10:56:10.248Z,3.17
2023-04-15T10:59:12.676Z,2.00
2023-04-15T11:02:15.619Z,1.47
2023-04-15T11:05:18.798Z,1.85
2023-04-15T11:08:58.821Z,4.35
2023-04-15T11:12:10.901Z,2.20
2023-04-15T11:15:38.874Z,2.92
2023-04-15T11:18:41.502Z,2.57
2023-04-15T11:21:44.380Z,2.35
2023-04-15T11:24:50.564Z,1.42
2023-04-15T11:27:54.642Z,1.02
2023-04-15T11:30:57.800Z,1.20
2023-04-15T11:34:02.202Z,0.80
2023-04-15T11:37:06.458Z,1.20
2023-04-15T11:40:09.461Z,1.50
2023-04-15T11:43:15.966Z,1.15
2023-04-15T11:46:18.692Z,1.45
2023-04-15T11:49:30.391Z,1.50
2023-04-15T11:52:33.287Z,1.98
2023-04-15T11:55:49.746Z,1.80
2023-04-15T11:58:53.876Z,3.25
2023-04-15T12:01:56.491Z,1.33
2023-04-15T12:05:06.556Z,2.90
2023-04-15T12:08:09.145Z,1.70
2023-04-15T12:11:11.655Z,2.20
2023-04-15T12:14:33.151Z,0.90
2023-04-15T12:17:51.368Z,1.27
2023-04-15T12:20:54.754Z,1.30
2023-04-15T12:23:58.190Z,0.93
2023-04-15T12:27:08.317Z,1.67
2023-04-15T12:30:11.729Z,1.67
2023-04-15T12:33:14.732Z,3.10
2023-04-15T12:36:17.304Z,2.87
2023-04-15T12:39:28.676Z,1.85
2023-04-15T12:42:32.935Z,1.55
2023-04-15T12:45:35.338Z,2.33
2023-04-15T12:48:37.826Z,3.40
2023-04-15T12:51:40.990Z,3.20
2023-04-15T12:54:43.556Z,2.35
2023-04-15T12:57:45.961Z,2.08
2023-04-15T13:00:49.720Z,4.20
2023-04-15T13:03:52.230Z,2.70
2023-04-15T13:06:54.873Z,3.03
2023-04-15T13:09:57.368Z,2.85
2023-04-15T13:12:59.963Z,1.80
2023-04-15T13:16:02.539Z,2.60
2023-04-15T13:19:05.536Z,2.00
2023-04-15T13:22:08.897Z,3.70
2023-04-15T13:25:11.826Z,2.30
2023-04-15T13:28:14.422Z,2.40
2023-04-15T13:31:17.184Z,2.33
2023-04-15T13:34:19.661Z,1.58
2023-04-15T13:37:27.441Z,1.43
2023-04-15T13:40:29.922Z,1.75
2023-04-15T13:43:34.337Z,0.98
2023-04-15T13:46:37.877Z,5.00
2023-04-15T13:49:40.627Z,4.18
2023-04-15T13:52:43.042Z,2.70
2023-04-15T13:55:45.781Z,2.80
2023-04-15T13:58:48.470Z,2.22
2023-04-15T14:01:51.197Z,3.35
2023-04-15T14:04:53.738Z,1.98
2023-04-15T14:07:56.213Z,1.50
2023-04-15T14:10:58.851Z,0.93
2023-04-15T14:14:01.354Z,3.70
2023-04-15T14:17:04.626Z,4.57
2023-04-15T14:20:08.447Z,2.33
2023-04-15T14:23:11.078Z,1.40
2023-04-15T14:26:14.140Z,2.35
2023-04-15T14:29:17.156Z,3.45
2023-04-15T14:32:19.898Z,1.30
2023-04-15T14:35:22.342Z,6.20
2023-04-15T14:38:24.958Z,0.50
2023-04-15T14:41:27.482Z,0.73
2023-04-15T14:47:37.608Z,0.70
2023-04-15T14:50:40.692Z,0.63
2023-04-15T14:53:43.963Z,0.43
2023-04-15T14:56:46.430Z,2.00
2023-04-15T14:59:48.949Z,9.75
2023-04-15T15:02:51.570Z,8.05
2023-04-15T15:05:54.346Z,6.25
2023-04-15T15:08:57.143Z,5.77
2023-04-15T15:11:59.713Z,4.57
2023-04-15T15:15:12.307Z,4.45
2023-04-15T15:18:21.686Z,10.75
2023-04-15T15:21:24.184Z,13.93
2023-04-15T15:24:26.849Z,18.07
2023-04-15T15:27:29.316Z,9.32
2023-04-15T15:30:31.858Z,6.95
2023-04-15T15:33:34.366Z,11.98
2023-04-15T15:36:36.740Z,13.18
2023-04-15T15:39:39.297Z,27.13
2023-04-15T15:42:42.698Z,15.68
2023-04-15T15:45:45.599Z,30.45
2023-04-15T15:48:48.066Z,23.15
2023-04-15T15:51:50.512Z,4.68
2023-04-15T15:54:53.068Z,5.77
2023-04-15T15:57:55.585Z,8.02
2023-04-15T16:00:59.742Z,11.07
2023-04-15T16:04:03.704Z,4.18
2023-04-15T16:07:06.586Z,2.72
2023-04-15T16:10:09.468Z,1.30
2023-04-15T16:13:12.796Z,0.80
2023-04-15T16:16:15.572Z,0.88
2023-04-15T16:19:18.635Z,4.50
2023-04-15T16:22:21.539Z,7.72
2023-04-15T16:25:24.394Z,4.57
2023-04-15T16:28:27.451Z,7.47
2023-04-15T16:31:30.526Z,10.93
2023-04-15T16:34:32.965Z,5.10
2023-04-15T16:37:36.152Z,3.78
2023-04-15T16:40:38.622Z,30.37
2023-04-15T16:43:41.520Z,22.42
2023-04-15T16:46:44.110Z,8.02
2023-04-15T16:49:46.533Z,2.15
2023-04-15T16:52:49.108Z,1.83
2023-04-15T16:55:51.810Z,11.10
2023-04-15T16:58:54.831Z,3.97
2023-04-15T17:01:57.575Z,2.70
2023-04-15T17:05:01.430Z,2.05
2023-04-15T17:08:05.051Z,3.13
2023-04-15T17:11:07.604Z,3.77
2023-04-15T17:14:10.345Z,3.97
2023-04-15T17:17:12.777Z,4.28
2023-04-15T17:20:17.409Z,5.50
2023-04-15T17:23:19.973Z,12.93
2023-04-15T17:26:22.392Z,16.73
2023-04-15T17:29:31.267Z,14.05
2023-04-15T17:32:34.993Z,9.45
2023-04-15T17:35:39.069Z,6.13
2023-04-15T17:38:41.820Z,4.53
2023-04-15T17:41:44.597Z,4.43
2023-04-15T17:44:47.136Z,2.60
2023-04-15T17:47:49.905Z,2.22
2023-04-15T17:50:52.695Z,2.60
2023-04-15T17:53:55.961Z,2.40
2023-04-15T17:56:59.441Z,2.60
2023-04-15T18:00:02.423Z,2.90
2023-04-15T18:03:15.605Z,5.70
2023-04-15T18:06:21.318Z,10.63
2023-04-15T18:09:24.010Z,18.02
2023-04-15T18:12:26.627Z,21.53
2023-04-15T18:15:32.118Z,14.63
2023-04-15T18:18:34.960Z,9.38
2023-04-15T18:21:37.668Z,20.25
2023-04-15T18:24:40.409Z,30.98
2023-04-15T18:27:43.124Z,20.47
2023-04-15T18:30:46.086Z,20.88
2023-04-15T18:33:49.126Z,13.48
2023-04-15T18:36:51.742Z,40.70
2023-04-15T18:39:54.289Z,31.35
2023-04-15T18:42:57.035Z,9.07
2023-04-15T18:46:00.190Z,14.13
2023-04-15T18:49:02.955Z,13.15
2023-04-15T18:52:06.670Z,12.23
2023-04-15T18:55:09.373Z,13.32
2023-04-15T18:58:12.359Z,12.83
2023-04-15T19:01:15.020Z,14.45
2023-04-15T19:04:17.997Z,19.15
2023-04-15T19:07:20.756Z,19.25
2023-04-15T19:10:23.703Z,15.35
2023-04-15T19:13:26.693Z,12.53
2023-04-15T19:16:29.569Z,11.80
2023-04-15T19:19:32.869Z,7.85
2023-04-15T19:22:36.718Z,6.13
2023-04-15T19:25:39.453Z,6.78
2023-04-15T19:28:42.179Z,12.93
2023-04-15T19:31:45.323Z,12.20
2023-04-15T19:34:49.180Z,7.20
2023-04-15T19:37:51.717Z,6.78
2023-04-15T19:40:54.172Z,4.97
2023-04-15T19:43:56.985Z,4.90
2023-04-15T19:46:59.636Z,11.65
2023-04-15T19:50:02.992Z,10.45
2023-04-15T19:53:05.844Z,6.38
2023-04-15T19:56:09.114Z,11.88
2023-04-15T19:59:12.928Z,22.50
2023-04-15T20:02:16.095Z,20.65
2023-04-15T20:05:18.774Z,20.35
2023-04-15T20:08:21.467Z,11.48
2023-04-15T20:12:46.927Z,7.63
2023-04-15T20:14:52.391Z,7.90
2023-04-15T20:17:55.031Z,9.00
2023-04-15T20:20:57.887Z,8.25
2023-04-15T20:24:00.740Z,5.50
2023-04-15T20:27:03.998Z,6.60
2023-04-15T20:30:07.417Z,8.23
2023-04-15T20:33:10.041Z,7.80
2023-04-15T20:36:12.713Z,4.90
2023-04-15T20:39:15.235Z,3.85
2023-04-15T20:42:19.291Z,4.45
2023-04-15T20:45:22.019Z,4.57
2023-04-15T20:48:24.942Z,5.97
2023-04-15T20:51:27.697Z,8.57
2023-04-15T20:54:30.470Z,14.73
2023-04-15T20:57:33.118Z,4.90
2023-04-15T21:00:35.863Z,5.57
2023-04-15T21:03:38.557Z,5.43
2023-04-15T21:06:41.200Z,5.28
2023-04-15T21:09:44.012Z,4.80
2023-04-15T21:12:46.561Z,4.78
2023-04-15T21:15:53.227Z,4.80
2023-04-15T21:18:55.731Z,5.90
2023-04-15T21:21:58.300Z,4.50
2023-04-15T21:25:01.573Z,5.22
2023-04-15T21:28:04.326Z,6.22
2023-04-15T21:31:08.767Z,6.87
2023-04-15T21:34:11.502Z,8.20
2023-04-15T21:37:13.930Z,8.68
2023-04-15T21:40:18.576Z,7.80
2023-04-15T21:43:22.955Z,7.82
2023-04-15T21:46:34.988Z,8.27
2023-04-15T21:49:38.667Z,8.73
2023-04-15T21:52:41.305Z,7.45
2023-04-15T21:55:43.799Z,8.63
2023-04-15T21:58:46.313Z,7.93
2023-04-15T22:01:49.059Z,7.70
2023-04-15T22:04:51.793Z,6.85
2023-04-15T22:07:54.176Z,6.03
2023-04-15T22:10:56.599Z,6.65
2023-04-15T22:13:59.611Z,6.38
2023-04-15T22:17:02.078Z,5.33
2023-04-15T22:20:04.875Z,5.78
2023-04-15T22:23:10.046Z,5.38
2023-04-15T22:26:12.497Z,4.93
2023-04-15T22:29:15.011Z,4.22
2023-04-15T22:32:17.489Z,4.60
2023-04-15T22:35:19.961Z,5.07
2023-04-15T22:38:22.487Z,4.40
2023-04-15T22:41:24.862Z,5.05
2023-04-15T22:44:27.296Z,5.15
2023-04-15T22:47:29.840Z,4.87
2023-04-15T22:50:32.442Z,4.45
2023-04-15T22:53:35.018Z,5.13
2023-04-15T22:56:37.518Z,4.53
2023-04-15T22:59:40.004Z,5.07
2023-04-15T23:02:42.703Z,5.07
2023-04-15T23:05:45.674Z,4.47
2023-04-15T23:08:48.115Z,5.57
2023-04-15T23:11:50.929Z,5.07
2023-04-15T23:14:53.418Z,4.53
2023-04-15T23:17:56.149Z,5.77
2023-04-15T23:20:58.732Z,5.32
2023-04-15T23:24:01.306Z,5.78
2023-04-15T23:27:03.883Z,5.18
2023-04-15T23:30:09.008Z,5.30
2023-04-15T23:33:12.062Z,6.30
2023-04-15T23:36:14.672Z,6.10
2023-04-15T23:39:17.229Z,4.85
2023-04-15T23:42:19.715Z,5.40
2023-04-15T23:45:22.277Z,4.70
2023-04-15T23:48:25.004Z,4.63
2023-04-15T23:51:27.995Z,5.35
2023-04-15T23:54:31.159Z,5.15
2023-04-15T23:57:33.693Z,4.90
